Eilat, Israel

12:01 PM IDT on October 24, 2014 (GMT +0300)
Eilat | Change Station
CLOSE
Current Station
Airport
Location: Eilat,
Elevation: 39 ft
Nearby Weather Stations

Elev 39 ft 29.56 °N, 34.96 °E | Updated 11 minutes ago

Clear
Clear
84 °F
Feels Like 83 °F
N
13
Wind Variable Wind from NE

Today
High -- | Low -- °F
--% Chance of Precip.
Yesterday
High -- | Low -- °F
Precip. -- in
6:47 AM 6:00 PM
New Moon, 0% visible
Pressure 30.04 in
Visibility -9999.0 miles
Clouds
Heat Index 83 °F
Dew Point 55 °F
Humidity 37%
Rainfall 0.00 in
Snow Depth Not available.
UV Not available.
Pollen Not available.
Air Quality Not available.
Flu Activity Not available.
METAR LLET 240850Z 05011KT CAVOK 29/13 Q1017

More Conditions Fewer Conditions

Pressure 30.04 in
Visibility -9999.0 miles
Clouds
Heat Index 83 °F
Dew Point 55 °F
Humidity 37%
Rainfall 0.00 in
Snow Depth Not available.
UV Not available.
Pollen Not available.
Air Quality Not available.
Flu Activity Not available.
METAR LLET 240850Z 05011KT CAVOK 29/13 Q1017

More Conditions Fewer Conditions

10-Day Weather Forecast

Almanac

Astronomy

Oct. 24, 2014 Rise Set
Actual Time 6:47 AM IDT 6:00 PM IDT
Civil Twilight 6:23 AM IDT 6:25 PM IDT
Nautical Twilight 5:55 AM IDT 6:53 PM IDT
Astronomical Twilight 5:27 AM IDT 7:20 PM IDT
Moon 7:04 AM IDT 6:29 PM IDT
Length of Visible Light 12h 01m
Length of Day
11h 13m
Tomorrow will be 1m 38s shorter.
New Moon, 0% of the Moon is Illuminated
Today
New Moon
Oct 30
First Quarter
Nov 6
Full
Nov 14
Last Quarter
Nov 22
New

Yesterday's Extremes

Country Highs Country Lows

Community

WunderPhotos

Upload Photos

1,764,513 photos uploaded!

WunderBlogs® & News

Nearby

Snow Depth

Not available.

Earthquake Activity

City Distance Mag. Time & Date
No recent earthquake activity has been reported nearby.
Minimum magnitude displayed is 2.5.

Coastal Water Temperatures

Place Temperature
No Stations Reporting

Nearby Weather Stations